Time;durP1;ratioP1;P1;durP2;ratioP2;P2;SDS_P1;SDS_P2;PMS_P1;PMS_P2;Temp;Humidity;BMP_temperature;BMP_pressure;BME280_temperature;BME280_humidity;BME280_pressure;Samples;Min_cycle;Max_cycle;Signal;HPM_P1;HPM_P2
2021/06/24 00:00:38;;;;;;;3.65;2.00;;;19.50;99.90;;;;;;5051263;28;20216;-60
2021/06/24 00:03:06;;;;;;;4.40;1.88;;;19.50;99.90;;;;;;5051388;28;20226;-60
2021/06/24 00:05:34;;;;;;;4.78;2.35;;;19.50;99.90;;;;;;5050731;28;20261;-60
2021/06/24 00:08:00;;;;;;;2.65;1.77;;;19.50;99.90;;;;;;5051189;28;20212;-66
2021/06/24 00:10:27;;;;;;;3.00;1.65;;;19.50;99.90;;;;;;5051639;28;20212;-58
2021/06/24 00:12:54;;;;;;;2.17;1.73;;;19.50;99.90;;;;;;5051395;28;20234;-58
2021/06/24 00:15:20;;;;;;;2.05;1.80;;;19.50;99.90;;;;;;5051589;28;20209;-59
2021/06/24 00:17:54;;;;;;;2.47;2.13;;;19.40;99.90;;;;;;5050928;28;20697;-58
2021/06/24 00:20:21;;;;;;;4.07;2.55;;;19.40;99.90;;;;;;5052063;28;20209;-58
2021/06/24 00:22:49;;;;;;;3.08;1.90;;;19.40;99.90;;;;;;5051078;28;20217;-57
2021/06/24 00:25:16;;;;;;;3.72;1.88;;;19.40;99.90;;;;;;5051327;28;20216;-58
2021/06/24 00:27:43;;;;;;;2.95;1.83;;;19.30;99.90;;;;;;5051603;28;20216;-58
2021/06/24 00:30:11;;;;;;;1.95;1.50;;;19.30;99.90;;;;;;5051319;28;20205;-58
2021/06/24 00:32:38;;;;;;;2.28;1.80;;;19.30;99.90;;;;;;5052205;28;20245;-59
2021/06/24 00:35:06;;;;;;;2.42;1.70;;;19.30;99.90;;;;;;5052023;28;20205;-59
2021/06/24 00:37:35;;;;;;;1.42;1.33;;;19.30;99.90;;;;;;5051900;28;20695;-59
2021/06/24 00:40:05;;;;;;;2.15;1.60;;;19.30;99.90;;;;;;5052116;28;20209;-58
2021/06/24 00:42:32;;;;;;;2.17;1.55;;;19.30;99.90;;;;;;5051719;28;20236;-58
2021/06/24 00:44:59;;;;;;;3.38;1.58;;;19.30;99.90;;;;;;5051038;28;20571;-58
2021/06/24 00:47:26;;;;;;;5.40;1.90;;;19.30;99.90;;;;;;5051540;28;20673;-58
2021/06/24 00:49:53;;;;;;;1.75;1.60;;;19.10;99.90;;;;;;5051246;28;20210;-57
2021/06/24 00:52:19;;;;;;;3.70;1.88;;;19.00;99.90;;;;;;5050651;28;20232;-58
2021/06/24 00:54:46;;;;;;;1.75;1.50;;;18.90;99.90;;;;;;5050498;28;20645;-57
2021/06/24 00:57:14;;;;;;;3.85;1.55;;;18.90;99.90;;;;;;5050633;28;20622;-57
2021/06/24 00:59:41;;;;;;;2.13;1.55;;;18.90;99.90;;;;;;5050513;28;20415;-58
2021/06/24 01:02:09;;;;;;;2.50;1.52;;;18.90;99.90;;;;;;5050515;28;20256;-57
2021/06/24 01:04:36;;;;;;;4.00;1.70;;;18.90;99.90;;;;;;5050506;28;20670;-58
2021/06/24 01:07:05;;;;;;;3.15;1.50;;;18.90;99.90;;;;;;5050788;28;20206;-57
2021/06/24 01:09:32;;;;;;;2.95;1.60;;;19.00;99.90;;;;;;5050425;28;20650;-58
2021/06/24 01:12:00;;;;;;;4.57;1.83;;;19.00;99.90;;;;;;5050261;28;20744;-57
2021/06/24 01:14:28;;;;;;;3.33;1.55;;;19.00;99.90;;;;;;5050543;28;20233;-58
2021/06/24 01:16:55;;;;;;;3.33;1.70;;;19.10;99.90;;;;;;5050737;28;20621;-57
2021/06/24 01:19:21;;;;;;;2.35;1.60;;;19.10;99.90;;;;;;5050422;28;20201;-57
2021/06/24 01:21:49;;;;;;;3.95;1.60;;;19.10;99.90;;;;;;5050364;28;20233;-58
2021/06/24 01:24:17;;;;;;;1.90;1.55;;;19.10;99.90;;;;;;5050249;28;20580;-57
2021/06/24 01:26:45;;;;;;;2.88;1.80;;;19.20;99.90;;;;;;5050134;28;20213;-58
2021/06/24 01:29:12;;;;;;;2.33;1.80;;;19.20;99.90;;;;;;5050264;28;20493;-58
2021/06/24 01:31:40;;;;;;;3.90;1.77;;;19.30;99.90;;;;;;5050398;28;20310;-59
2021/06/24 01:34:08;;;;;;;3.25;1.75;;;19.30;99.90;;;;;;5050088;28;20244;-60
2021/06/24 01:36:35;;;;;;;3.30;1.63;;;19.30;99.90;;;;;;5050213;28;20210;-59
2021/06/24 01:39:03;;;;;;;2.10;1.60;;;19.30;99.90;;;;;;5049895;28;20210;-58
2021/06/24 01:41:31;;;;;;;1.63;1.42;;;19.20;99.90;;;;;;5052656;28;20233;-58
2021/06/24 01:43:58;;;;;;;3.05;1.55;;;19.20;99.90;;;;;;5053665;28;20202;-59
2021/06/24 01:46:25;;;;;;;2.50;1.58;;;19.10;99.90;;;;;;5053704;28;20209;-58
2021/06/24 01:48:52;;;;;;;2.33;1.60;;;19.10;99.90;;;;;;5053396;28;20213;-57
2021/06/24 01:51:19;;;;;;;2.17;1.70;;;19.20;99.90;;;;;;5053432;28;20209;-58
2021/06/24 01:53:45;;;;;;;2.47;1.67;;;19.10;99.90;;;;;;5053248;28;20282;-58
2021/06/24 01:56:12;;;;;;;2.30;1.70;;;19.20;99.90;;;;;;5053584;28;20213;-58
2021/06/24 01:58:40;;;;;;;2.28;1.70;;;19.20;99.90;;;;;;5053442;28;20201;-58
2021/06/24 02:01:07;;;;;;;2.20;2.00;;;19.30;99.90;;;;;;5053874;28;20202;-58
2021/06/24 02:03:36;;;;;;;2.15;1.90;;;19.30;99.90;;;;;;5053503;28;20213;-58
2021/06/24 02:06:02;;;;;;;2.80;1.88;;;19.30;99.90;;;;;;5053260;28;20656;-58
2021/06/24 02:08:30;;;;;;;2.53;1.80;;;19.30;99.90;;;;;;5053105;28;20257;-58
2021/06/24 02:10:58;;;;;;;2.20;1.88;;;19.30;99.90;;;;;;5053541;28;20649;-58
2021/06/24 02:13:26;;;;;;;4.60;2.20;;;19.40;99.90;;;;;;5052939;28;20689;-59
2021/06/24 02:15:55;;;;;;;2.88;1.90;;;19.40;99.90;;;;;;5053210;28;20582;-58
2021/06/24 02:18:21;;;;;;;4.93;2.17;;;19.40;99.90;;;;;;5053045;28;20210;-58
2021/06/24 02:20:48;;;;;;;3.17;1.88;;;19.40;99.90;;;;;;5053037;28;20209;-58
2021/06/24 02:23:15;;;;;;;3.85;1.75;;;19.40;99.90;;;;;;5053064;28;20229;-59
2021/06/24 02:25:42;;;;;;;2.75;1.67;;;19.40;99.90;;;;;;5053133;28;20229;-59
2021/06/24 02:28:09;;;;;;;4.35;1.92;;;19.40;99.90;;;;;;5052626;28;20557;-58
2021/06/24 02:30:37;;;;;;;6.45;1.83;;;19.30;99.90;;;;;;5052916;28;20206;-59
2021/06/24 02:33:08;;;;;;;2.38;1.70;;;19.20;99.90;;;;;;5052739;28;20226;-58
2021/06/24 02:35:35;;;;;;;2.67;1.83;;;19.10;99.90;;;;;;5052718;28;20403;-58
2021/06/24 02:38:03;;;;;;;2.33;1.88;;;19.00;99.90;;;;;;5052869;28;20238;-58
2021/06/24 02:40:30;;;;;;;3.95;2.00;;;19.00;99.90;;;;;;5052836;28;20206;-58
2021/06/24 02:42:56;;;;;;;3.60;1.80;;;19.00;99.90;;;;;;5052799;28;20229;-58
2021/06/24 02:45:23;;;;;;;6.85;1.83;;;18.90;99.90;;;;;;5052609;28;20493;-58
2021/06/24 02:47:50;;;;;;;3.55;1.83;;;18.90;99.90;;;;;;5052643;28;20216;-58
2021/06/24 02:50:18;;;;;;;3.25;2.20;;;18.90;99.90;;;;;;5052748;28;20205;-58
2021/06/24 02:52:45;;;;;;;5.13;2.17;;;18.90;99.90;;;;;;5051244;28;20245;-58
2021/06/24 02:55:12;;;;;;;3.15;2.05;;;18.90;99.90;;;;;;5052169;28;20617;-59
2021/06/24 02:57:40;;;;;;;2.58;1.80;;;18.80;99.90;;;;;;5052337;28;20217;-58
2021/06/24 03:00:09;;;;;;;2.13;1.80;;;18.80;99.90;;;;;;5052304;28;20209;-58
2021/06/24 03:02:36;;;;;;;2.25;2.00;;;18.80;99.90;;;;;;5051797;28;20233;-58
2021/06/24 03:05:04;;;;;;;3.15;1.85;;;18.80;99.90;;;;;;5052185;28;20208;-58
2021/06/24 03:07:32;;;;;;;4.20;1.80;;;18.70;99.90;;;;;;5052385;28;20220;-58
2021/06/24 03:09:58;;;;;;;4.63;2.00;;;18.60;99.90;;;;;;5052220;28;20217;-58
2021/06/24 03:12:25;;;;;;;2.88;1.80;;;18.50;99.90;;;;;;5052057;28;20234;-59
2021/06/24 03:14:52;;;;;;;5.43;2.40;;;18.50;99.90;;;;;;5051707;28;20229;-59
2021/06/24 03:17:19;;;;;;;4.13;2.00;;;18.50;99.90;;;;;;5051900;28;20669;-59
2021/06/24 03:19:45;;;;;;;2.88;1.98;;;18.50;99.90;;;;;;5052025;28;20210;-58
2021/06/24 03:22:12;;;;;;;2.97;1.90;;;18.40;99.90;;;;;;5051953;28;20321;-58
2021/06/24 03:24:41;;;;;;;4.38;2.03;;;18.30;99.90;;;;;;5051892;28;20214;-58
2021/06/24 03:27:08;;;;;;;6.03;2.10;;;18.20;99.90;;;;;;5051851;28;20216;-58
2021/06/24 03:29:35;;;;;;;2.70;1.88;;;18.10;99.90;;;;;;5051811;28;20739;-58
2021/06/24 03:32:02;;;;;;;4.25;2.10;;;18.20;99.90;;;;;;5051693;28;20222;-58
2021/06/24 03:34:28;;;;;;;5.87;2.30;;;18.20;99.90;;;;;;5051908;28;20225;-58
2021/06/24 03:36:55;;;;;;;3.72;2.30;;;18.20;99.90;;;;;;5051848;28;20209;-57
2021/06/24 03:39:22;;;;;;;6.60;3.00;;;18.20;99.90;;;;;;5051303;28;20206;-57
2021/06/24 03:41:50;;;;;;;3.13;2.22;;;18.20;99.90;;;;;;5051247;28;20226;-58
2021/06/24 03:44:17;;;;;;;2.50;1.85;;;18.20;99.90;;;;;;5051503;28;20688;-57
2021/06/24 03:46:43;;;;;;;5.18;2.05;;;18.20;99.90;;;;;;5051693;28;20209;-60
2021/06/24 03:49:11;;;;;;;5.78;2.30;;;18.20;99.90;;;;;;5051502;28;20206;-58
2021/06/24 03:51:38;;;;;;;2.25;2.00;;;18.20;99.90;;;;;;5051173;28;20248;-57
2021/06/24 03:54:05;;;;;;;3.05;2.33;;;18.30;99.90;;;;;;5051009;28;20263;-58
2021/06/24 03:56:32;;;;;;;4.10;2.20;;;18.30;99.90;;;;;;5051488;28;20213;-58
2021/06/24 03:59:00;;;;;;;6.15;2.70;;;18.30;99.90;;;;;;5051160;28;20598;-58
2021/06/24 04:01:27;;;;;;;8.20;2.90;;;18.30;99.90;;;;;;5051107;28;20232;-58
2021/06/24 04:03:53;;;;;;;10.50;7.50;;;18.30;99.90;;;;;;5050763;28;20231;-58
2021/06/24 04:06:20;;;;;;;6.22;4.30;;;18.40;99.90;;;;;;5050958;28;20704;-58
2021/06/24 04:08:47;;;;;;;3.40;2.55;;;18.50;99.90;;;;;;5050822;28;20624;-58
2021/06/24 04:11:13;;;;;;;5.38;4.72;;;18.60;99.90;;;;;;5050784;28;20206;-58
2021/06/24 04:13:40;;;;;;;5.50;4.60;;;18.70;99.90;;;;;;5050721;28;20213;-59
2021/06/24 04:16:08;;;;;;;5.38;3.13;;;18.90;99.90;;;;;;5050838;28;20209;-58
2021/06/24 04:18:35;;;;;;;4.82;2.45;;;19.00;99.90;;;;;;5050797;28;20709;-58
2021/06/24 04:21:02;;;;;;;4.05;2.65;;;19.20;99.90;;;;;;5050886;28;20205;-59
2021/06/24 04:23:29;;;;;;;2.40;2.20;;;19.30;99.90;;;;;;5050562;28;20583;-59
2021/06/24 04:25:56;;;;;;;6.40;4.68;;;19.50;99.90;;;;;;5051105;28;20221;-58
2021/06/24 04:28:22;;;;;;;5.40;4.57;;;19.60;99.90;;;;;;5050832;28;20201;-59
2021/06/24 04:30:49;;;;;;;4.93;3.15;;;19.80;99.90;;;;;;5050717;28;20705;-59
2021/06/24 04:33:17;;;;;;;4.82;3.20;;;19.90;99.90;;;;;;5050485;28;20608;-58
2021/06/24 04:35:44;;;;;;;10.43;8.18;;;20.10;99.90;;;;;;5050449;28;20234;-59
2021/06/24 04:38:10;;;;;;;4.30;2.90;;;20.20;99.90;;;;;;5050307;28;20214;-58
2021/06/24 04:40:37;;;;;;;8.63;5.25;;;20.40;99.90;;;;;;5050670;28;20201;-59
2021/06/24 04:43:05;;;;;;;11.48;6.25;;;20.50;99.90;;;;;;5050602;28;20226;-59
2021/06/24 04:45:32;;;;;;;6.25;5.38;;;20.60;99.90;;;;;;5050812;28;20205;-59
2021/06/24 04:47:58;;;;;;;8.55;5.20;;;20.80;99.90;;;;;;5050789;28;20217;-58
2021/06/24 04:50:27;;;;;;;3.92;3.40;;;20.90;99.90;;;;;;5050615;28;20213;-59
2021/06/24 04:52:53;;;;;;;4.25;3.20;;;21.00;99.90;;;;;;5050863;28;20412;-59
2021/06/24 04:55:20;;;;;;;5.18;3.63;;;21.10;99.90;;;;;;5051163;28;20232;-59
2021/06/24 04:57:47;;;;;;;4.32;2.92;;;21.20;99.90;;;;;;5050674;28;20206;-59
2021/06/24 05:00:15;;;;;;;4.43;2.28;;;21.70;99.90;;;;;;5050561;28;20201;-59
2021/06/24 05:02:42;;;;;;;6.25;3.20;;;22.40;99.90;;;;;;5050437;28;20236;-59
2021/06/24 05:05:09;;;;;;;6.43;2.50;;;23.00;99.90;;;;;;5050523;28;20229;-58
2021/06/24 05:07:39;;;;;;;2.45;2.08;;;23.40;99.90;;;;;;5050329;28;20217;-59
2021/06/24 05:10:07;;;;;;;4.55;2.90;;;24.30;99.90;;;;;;5050626;28;20292;-59
2021/06/24 05:12:33;;;;;;;4.20;2.42;;;25.70;99.90;;;;;;5050409;28;20229;-59
2021/06/24 05:15:01;;;;;;;5.80;2.05;;;27.00;99.90;;;;;;5050436;28;20237;-59
2021/06/24 05:17:29;;;;;;;5.03;2.97;;;27.70;99.90;;;;;;5054483;28;20205;-59
2021/06/24 05:19:57;;;;;;;4.95;2.28;;;28.10;99.90;;;;;;5054053;28;20209;-60
2021/06/24 05:22:24;;;;;;;4.53;1.90;;;28.70;99.90;;;;;;5054302;28;20232;-60
2021/06/24 05:24:52;;;;;;;3.08;2.30;;;29.40;99.90;;;;;;5054145;28;20210;-60
2021/06/24 05:27:19;;;;;;;4.68;1.95;;;30.80;99.90;;;;;;5054156;28;20206;-61
2021/06/24 05:29:45;;;;;;;2.47;2.00;;;32.00;96.20;;;;;;5053996;28;20216;-60
2021/06/24 05:32:12;;;;;;;3.53;2.40;;;33.30;93.00;;;;;;5054093;28;20237;-59
2021/06/24 05:34:39;;;;;;;6.88;2.10;;;34.20;87.10;;;;;;5053867;28;20244;-60
2021/06/24 05:37:05;;;;;;;2.80;1.98;;;34.30;84.20;;;;;;5054155;28;20224;-60
2021/06/24 05:39:32;;;;;;;4.18;2.17;;;33.90;84.10;;;;;;5053742;28;20213;-59
2021/06/24 05:42:00;;;;;;;2.92;1.95;;;33.50;83.50;;;;;;5053650;28;20233;-59
2021/06/24 05:44:27;;;;;;;7.47;2.58;;;33.60;81.20;;;;;;5054187;28;20212;-60
2021/06/24 05:46:55;;;;;;;2.83;2.35;;;32.60;82.70;;;;;;5053897;28;20216;-59
2021/06/24 05:49:21;;;;;;;3.88;2.42;;;31.40;88.40;;;;;;5054034;28;20304;-59
2021/06/24 05:51:48;;;;;;;2.53;1.80;;;29.80;91.90;;;;;;5053986;28;20465;-59
2021/06/24 05:54:15;;;;;;;5.57;1.90;;;28.40;94.90;;;;;;5053125;28;20581;-59
2021/06/24 05:56:42;;;;;;;2.30;2.08;;;27.50;96.90;;;;;;5053616;28;20225;-61
2021/06/24 05:59:10;;;;;;;2.83;2.00;;;26.70;99.10;;;;;;5053682;28;20803;-61
2021/06/24 06:01:40;;;;;;;6.95;3.90;;;26.00;99.90;;;;;;5053802;28;20237;-61
2021/06/24 06:04:07;;;;;;;3.72;2.75;;;25.00;99.90;;;;;;5053704;28;20209;-61
2021/06/24 06:06:33;;;;;;;5.15;3.15;;;24.20;99.90;;;;;;5053564;28;20212;-61
2021/06/24 06:09:01;;;;;;;2.50;2.00;;;23.90;99.90;;;;;;5053234;28;20202;-61
2021/06/24 06:11:28;;;;;;;3.58;2.42;;;23.70;99.90;;;;;;5053187;28;20228;-60
2021/06/24 06:13:55;;;;;;;3.47;2.28;;;23.10;99.90;;;;;;5052839;28;20263;-61
2021/06/24 06:16:23;;;;;;;4.32;2.33;;;23.00;99.90;;;;;;5053052;28;20230;-61
2021/06/24 06:18:50;;;;;;;2.78;2.28;;;22.90;99.90;;;;;;5052790;28;20208;-62
2021/06/24 06:21:16;;;;;;;5.05;2.47;;;22.80;99.90;;;;;;5052962;28;20214;-61
2021/06/24 06:23:43;;;;;;;2.95;2.50;;;22.80;99.90;;;;;;5052785;28;20209;-61
2021/06/24 06:26:10;;;;;;;2.55;2.35;;;22.70;99.90;;;;;;5052568;28;20678;-61
2021/06/24 06:28:37;;;;;;;3.70;2.30;;;22.70;99.90;;;;;;5052487;28;20213;-61
2021/06/24 06:31:03;;;;;;;3.15;2.28;;;22.70;99.90;;;;;;5052929;28;20214;-61
2021/06/24 06:33:31;;;;;;;2.42;2.22;;;22.60;99.90;;;;;;5052912;28;20588;-61
2021/06/24 06:35:58;;;;;;;7.07;2.35;;;22.80;99.90;;;;;;5052677;28;20236;-61
2021/06/24 06:38:25;;;;;;;3.55;2.03;;;23.30;99.90;;;;;;5052581;28;20202;-61
2021/06/24 06:40:52;;;;;;;4.93;2.95;;;23.70;99.90;;;;;;5052697;28;20259;-61
2021/06/24 06:43:19;;;;;;;3.42;2.58;;;24.20;99.90;;;;;;5052238;28;20236;-61
2021/06/24 06:45:46;;;;;;;3.63;2.22;;;25.70;99.90;;;;;;5052530;28;20199;-62
2021/06/24 06:48:14;;;;;;;3.75;1.92;;;28.10;99.90;;;;;;5052448;28;20210;-61
2021/06/24 06:50:43;;;;;;;2.72;1.98;;;30.40;99.20;;;;;;5052460;28;20242;-62
2021/06/24 06:53:10;;;;;;;3.30;1.63;;;31.70;95.00;;;;;;5052243;28;20225;-62
2021/06/24 06:55:38;;;;;;;2.05;1.70;;;33.50;91.00;;;;;;5051963;28;20261;-62
2021/06/24 06:58:06;;;;;;;2.20;1.67;;;35.10;80.00;;;;;;5052111;28;20209;-63
2021/06/24 07:00:33;;;;;;;3.85;2.70;;;36.10;73.00;;;;;;5052492;28;20214;-62
2021/06/24 07:03:01;;;;;;;3.10;1.70;;;35.40;70.90;;;;;;5052573;28;20233;-62
2021/06/24 07:05:28;;;;;;;2.47;1.80;;;33.90;75.60;;;;;;5052543;28;20209;-62
2021/06/24 07:07:56;;;;;;;2.35;2.10;;;33.30;77.90;;;;;;5052279;28;20210;-65
2021/06/24 07:10:23;;;;;;;1.85;1.63;;;34.20;74.40;;;;;;5052123;28;20209;-60
2021/06/24 07:12:50;;;;;;;2.22;1.58;;;35.50;70.20;;;;;;5052103;28;20240;-59
2021/06/24 07:15:17;;;;;;;3.50;2.05;;;35.60;66.80;;;;;;5052103;28;20252;-57
2021/06/24 07:17:45;;;;;;;3.00;1.75;;;34.30;69.80;;;;;;5051887;28;20645;-60
2021/06/24 07:20:12;;;;;;;3.95;1.90;;;32.60;74.30;;;;;;5051981;28;20632;-58
2021/06/24 07:22:40;;;;;;;1.50;1.40;;;31.50;76.50;;;;;;5051755;28;20248;-58
2021/06/24 07:25:13;;;;;;;3.10;1.98;;;30.80;78.00;;;;;;5051962;28;20259;-59
2021/06/24 07:27:40;;;;;;;1.15;1.08;;;29.80;79.10;;;;;;5051694;28;20201;-58
2021/06/24 07:30:08;;;;;;;2.42;1.58;;;28.60;85.00;;;;;;5051888;28;20217;-58
2021/06/24 07:32:34;;;;;;;2.28;1.48;;;28.00;89.00;;;;;;5051833;28;20233;-59
2021/06/24 07:35:02;;;;;;;3.38;1.70;;;27.80;90.90;;;;;;5051686;28;20232;-58
2021/06/24 07:37:28;;;;;;;1.75;1.55;;;27.60;91.60;;;;;;5051410;28;20214;-58
2021/06/24 07:39:55;;;;;;;2.63;1.40;;;27.60;91.30;;;;;;5051253;28;20209;-58
2021/06/24 07:42:23;;;;;;;1.83;1.48;;;27.70;90.90;;;;;;5051565;28;20233;-59
2021/06/24 07:44:50;;;;;;;1.60;1.38;;;28.00;90.50;;;;;;5051226;28;20202;-58
2021/06/24 07:47:18;;;;;;;1.60;1.48;;;28.00;90.50;;;;;;5050974;28;20210;-60
2021/06/24 07:49:46;;;;;;;1.73;1.30;;;27.50;91.10;;;;;;5051248;28;20232;-58
2021/06/24 07:52:13;;;;;;;1.67;1.58;;;27.30;91.40;;;;;;5050996;28;20229;-58
2021/06/24 07:54:40;;;;;;;2.92;1.92;;;27.30;91.50;;;;;;5051231;28;20201;-58
2021/06/24 07:57:07;;;;;;;2.88;2.00;;;26.90;93.70;;;;;;5051327;28;20233;-58
2021/06/24 07:59:35;;;;;;;2.65;2.00;;;26.70;94.90;;;;;;5051106;28;20205;-58
2021/06/24 08:02:02;;;;;;;3.25;2.20;;;26.70;95.50;;;;;;5068917;22;20242;-60
2021/06/24 08:04:29;;;;;;;2.15;1.90;;;26.20;96.80;;;;;;5071052;28;20672;-59
2021/06/24 08:06:56;;;;;;;1.77;1.40;;;26.00;96.80;;;;;;5071195;28;20205;-60
2021/06/24 08:09:23;;;;;;;2.88;1.60;;;25.80;97.50;;;;;;5070996;28;20640;-60
2021/06/24 08:11:50;;;;;;;2.20;1.58;;;25.90;97.20;;;;;;5070935;28;20647;-59
2021/06/24 08:14:16;;;;;;;2.05;1.85;;;26.10;97.20;;;;;;5070975;28;20209;-60
2021/06/24 08:16:45;;;;;;;1.70;1.40;;;26.40;96.70;;;;;;5070854;28;20229;-58
2021/06/24 08:19:11;;;;;;;2.13;1.50;;;26.30;96.60;;;;;;5070511;28;20299;-58
2021/06/24 08:21:38;;;;;;;1.60;1.50;;;26.50;95.90;;;;;;5071214;28;20664;-60
2021/06/24 08:24:05;;;;;;;2.03;1.67;;;27.00;94.70;;;;;;5071050;28;20208;-60
2021/06/24 08:26:32;;;;;;;1.60;1.50;;;27.50;93.60;;;;;;5071467;28;20208;-59
2021/06/24 08:28:59;;;;;;;2.15;1.60;;;28.00;93.00;;;;;;5071067;28;20216;-60
2021/06/24 08:31:26;;;;;;;1.88;1.42;;;28.70;91.80;;;;;;5071025;28;20619;-60
2021/06/24 08:33:54;;;;;;;2.20;1.50;;;29.90;90.60;;;;;;5070775;28;20209;-60
2021/06/24 08:36:21;;;;;;;1.63;1.52;;;31.00;88.60;;;;;;5071084;28;20221;-60
2021/06/24 08:38:48;;;;;;;3.10;2.10;;;31.00;85.00;;;;;;5071236;28;20219;-58
2021/06/24 08:41:15;;;;;;;1.95;1.77;;;30.90;85.20;;;;;;5070848;28;20210;-60
2021/06/24 08:43:42;;;;;;;2.30;1.40;;;31.90;82.80;;;;;;5070745;28;20286;-58
2021/06/24 08:46:09;;;;;;;1.88;1.60;;;33.50;77.60;;;;;;5068524;28;20205;-60
2021/06/24 08:48:36;;;;;;;2.00;1.65;;;34.00;73.10;;;;;;5070376;28;20205;-61
2021/06/24 08:51:05;;;;;;;2.40;2.08;;;33.70;73.00;;;;;;5074326;28;20200;-64
2021/06/24 08:53:33;;;;;;;4.07;2.53;;;33.20;74.00;;;;;;5075158;28;20597;-64
2021/06/24 08:56:00;;;;;;;1.75;1.63;;;32.70;74.60;;;;;;5074370;28;20228;-62
2021/06/24 08:58:26;;;;;;;2.50;1.80;;;32.30;75.90;;;;;;5074578;28;20208;-63
2021/06/24 09:00:55;;;;;;;2.53;2.00;;;31.90;76.30;;;;;;5074450;28;20212;-63
2021/06/24 09:03:23;;;;;;;3.53;2.08;;;31.40;77.40;;;;;;5074387;28;20286;-62
2021/06/24 09:05:56;;;;;;;3.08;1.80;;;31.10;78.60;;;;;;5074609;28;20197;-62
2021/06/24 09:08:38;;;;;;;3.03;2.38;;;30.80;78.50;;;;;;5074444;28;20221;-62
2021/06/24 09:11:20;;;;;;;1.67;1.35;;;30.40;78.70;;;;;;5074529;28;20664;-61
2021/06/24 09:13:59;;;;;;;2.17;1.75;;;30.20;78.00;;;;;;5074361;28;20220;-62
2021/06/24 09:16:27;;;;;;;2.10;1.88;;;29.90;79.00;;;;;;5074311;28;20278;-62
2021/06/24 09:19:13;;;;;;;2.03;1.77;;;29.50;80.90;;;;;;5073741;28;20200;-63
2021/06/24 09:21:40;;;;;;;1.52;1.42;;;29.40;83.70;;;;;;5073911;28;20692;-66
2021/06/24 09:24:21;;;;;;;1.70;1.60;;;29.50;83.30;;;;;;5074029;28;20232;-65
2021/06/24 09:26:48;;;;;;;5.88;2.42;;;29.60;83.30;;;;;;5073591;28;20653;-63
2021/06/24 09:29:18;;;;;;;3.90;1.80;;;29.60;83.30;;;;;;5073372;28;20213;-62
2021/06/24 09:31:49;;;;;;;1.73;1.50;;;29.40;83.00;;;;;;5073525;28;20209;-63
2021/06/24 09:34:17;;;;;;;1.70;1.60;;;29.30;83.00;;;;;;5073179;28;20557;-62
2021/06/24 09:36:46;;;;;;;2.42;1.67;;;29.20;83.30;;;;;;5073456;28;20577;-63
2021/06/24 09:39:28;;;;;;;2.55;1.50;;;29.20;84.80;;;;;;5073666;28;20216;-62
2021/06/24 09:42:00;;;;;;;1.60;1.50;;;29.30;84.40;;;;;;5073116;28;20704;-62
2021/06/24 09:44:28;;;;;;;2.47;2.00;;;29.50;83.80;;;;;;5073499;28;20236;-66
2021/06/24 09:46:55;;;;;;;3.50;1.52;;;29.70;82.20;;;;;;5073314;28;20577;-63
2021/06/24 09:49:27;;;;;;;2.25;1.35;;;29.80;80.80;;;;;;5073242;28;20204;-64
2021/06/24 09:51:54;;;;;;;6.63;2.10;;;29.80;81.10;;;;;;5073311;28;20648;-63
2021/06/24 09:54:30;;;;;;;3.10;1.60;;;29.90;80.80;;;;;;5073816;28;20262;-63
2021/06/24 09:56:58;;;;;;;5.07;2.00;;;30.00;80.30;;;;;;5072878;28;20251;-62
2021/06/24 09:59:33;;;;;;;2.50;2.15;;;30.20;79.70;;;;;;5073192;28;20209;-63
2021/06/24 10:02:07;;;;;;;2.65;1.63;;;30.40;79.50;;;;;;5072743;28;20298;-62
2021/06/24 10:04:33;;;;;;;2.50;1.40;;;30.70;79.90;;;;;;5073139;28;20662;-61
2021/06/24 10:07:01;;;;;;;2.92;1.83;;;30.80;78.50;;;;;;5073663;28;20201;-60
2021/06/24 10:09:31;;;;;;;2.30;1.63;;;30.50;77.30;;;;;;5073252;28;20215;-60
2021/06/24 10:11:59;;;;;;;2.40;1.58;;;30.40;76.40;;;;;;5073798;28;20949;-60
2021/06/24 10:14:27;;;;;;;1.52;1.40;;;30.70;76.80;;;;;;5073885;28;20205;-59
2021/06/24 10:16:55;;;;;;;3.72;1.85;;;31.20;75.30;;;;;;5073690;28;20282;-59
2021/06/24 10:19:25;;;;;;;3.15;1.80;;;31.50;74.80;;;;;;5073384;28;20209;-59
2021/06/24 10:21:56;;;;;;;2.28;1.50;;;31.70;74.00;;;;;;5073313;28;20286;-58
2021/06/24 10:24:31;;;;;;;5.18;3.75;;;31.90;72.00;;;;;;5073060;28;20216;-59
2021/06/24 10:27:01;;;;;;;3.47;2.15;;;31.80;70.90;;;;;;5073277;28;20204;-59
2021/06/24 10:29:40;;;;;;;4.40;2.33;;;31.80;72.10;;;;;;5073217;28;20211;-59
2021/06/24 10:32:23;;;;;;;3.47;2.30;;;31.70;72.30;;;;;;5072882;28;20646;-59
2021/06/24 10:34:52;;;;;;;6.47;4.85;;;31.40;72.60;;;;;;5072536;28;20240;-59
2021/06/24 10:37:21;;;;;;;3.92;2.28;;;31.20;74.00;;;;;;5072932;28;20264;-59
2021/06/24 10:39:51;;;;;;;3.63;1.60;;;31.20;73.70;;;;;;5072772;28;20201;-59
2021/06/24 10:42:19;;;;;;;2.60;1.70;;;31.20;73.70;;;;;;5072443;28;20565;-59
2021/06/24 10:44:58;;;;;;;4.18;1.60;;;31.10;75.80;;;;;;5072112;28;20583;-59
2021/06/24 10:47:39;;;;;;;2.30;1.55;;;30.80;75.20;;;;;;5072677;28;20201;-59
2021/06/24 10:50:39;;;;;;;4.75;2.00;;;30.50;75.00;;;;;;5072036;28;20209;-60
2021/06/24 10:53:39;;;;;;;2.28;1.75;;;30.20;75.00;;;;;;5072823;28;20591;-60
2021/06/24 10:56:30;;;;;;;1.70;1.60;;;29.80;77.10;;;;;;5072629;28;20228;-60
2021/06/24 10:58:59;;;;;;;2.75;1.60;;;29.60;78.00;;;;;;5072172;28;20212;-60
2021/06/24 11:01:45;;;;;;;2.53;1.50;;;29.60;77.70;;;;;;5072210;28;20201;-60
2021/06/24 11:04:33;;;;;;;4.25;1.67;;;29.70;77.70;;;;;;5072066;28;20208;-60
2021/06/24 11:07:06;;;;;;;4.47;1.63;;;29.60;77.70;;;;;;5072065;28;20197;-59
2021/06/24 11:09:33;;;;;;;1.75;1.48;;;29.60;78.00;;;;;;5071807;28;20254;-59
2021/06/24 11:12:01;;;;;;;1.10;1.00;;;29.80;75.50;;;;;;5072245;28;20225;-59
2021/06/24 11:14:50;;;;;;;2.90;1.00;;;30.00;72.50;;;;;;5072619;28;20212;-59
2021/06/24 11:17:45;;;;;;;1.73;1.40;;;30.20;72.00;;;;;;5073140;28;20731;-59
2021/06/24 11:20:17;;;;;;;2.85;1.30;;;30.20;70.00;;;;;;5071853;28;20205;-60
2021/06/24 11:22:49;;;;;;;1.38;0.98;;;30.30;71.10;;;;;;5071788;28;20244;-60
2021/06/24 11:25:16;;;;;;;1.67;1.17;;;30.40;70.20;;;;;;5071926;28;20204;-60
2021/06/24 11:27:44;;;;;;;1.70;1.20;;;30.40;69.70;;;;;;5071840;28;20196;-59
2021/06/24 11:30:13;;;;;;;1.55;1.30;;;30.40;70.00;;;;;;5071726;28;20208;-59
2021/06/24 11:32:44;;;;;;;4.20;1.45;;;30.50;71.40;;;;;;5071849;28;20294;-59
2021/06/24 11:35:31;;;;;;;2.83;1.40;;;30.80;71.50;;;;;;5071631;28;20748;-60
2021/06/24 11:38:02;;;;;;;1.30;1.20;;;31.20;70.30;;;;;;5071691;28;20220;-59
2021/06/24 11:40:29;;;;;;;1.25;1.10;;;31.40;68.80;;;;;;5071499;28;20205;-60
2021/06/24 11:42:58;;;;;;;2.08;1.35;;;31.10;67.10;;;;;;5071270;28;20236;-60
2021/06/24 11:45:26;;;;;;;2.15;1.10;;;30.90;68.90;;;;;;5070874;28;20205;-59
2021/06/24 11:47:56;;;;;;;1.00;0.90;;;30.80;65.90;;;;;;5071108;28;20683;-60
2021/06/24 12:01:54;;;;;;;3.55;1.92;;;29.40;73.50;;;;;;5071556;28;20734;-60
2021/06/24 12:04:26;;;;;;;1.40;1.13;;;30.10;72.60;;;;;;5070832;28;20737;-59
2021/06/24 12:06:56;;;;;;;1.33;0.90;;;30.00;71.00;;;;;;5071185;28;20193;-60
2021/06/24 12:09:26;;;;;;;2.33;0.90;;;30.10;68.60;;;;;;5071112;28;20205;-59
2021/06/24 12:11:58;;;;;;;1.05;0.90;;;30.00;67.60;;;;;;5071198;28;20605;-60
2021/06/24 12:14:29;;;;;;;1.13;1.02;;;29.90;68.10;;;;;;5070855;28;20204;-61
2021/06/24 12:17:21;;;;;;;1.27;1.00;;;29.80;69.60;;;;;;5071138;28;20251;-61
2021/06/24 12:19:59;;;;;;;2.45;1.45;;;29.70;70.00;;;;;;5055916;28;20205;-60
2021/06/24 12:22:39;;;;;;;2.35;1.70;;;29.80;71.50;;;;;;5070849;28;20680;-60
2021/06/24 12:25:09;;;;;;;1.10;1.00;;;29.90;70.90;;;;;;5070483;28;20878;-60
2021/06/24 12:27:38;;;;;;;2.13;1.02;;;30.10;70.90;;;;;;5070644;28;20480;-59
2021/06/24 12:30:12;;;;;;;4.40;4.03;;;30.30;70.30;;;;;;5070943;28;20224;-60
2021/06/24 12:32:45;;;;;;;2.80;1.30;;;30.40;69.30;;;;;;5070341;28;20712;-60
2021/06/24 12:35:12;;;;;;;2.35;1.00;;;30.30;69.30;;;;;;5070476;28;20596;-60
2021/06/24 12:37:42;;;;;;;0.90;0.90;;;30.20;69.70;;;;;;5070653;28;20228;-60
2021/06/24 12:40:13;;;;;;;1.52;1.00;;;30.00;70.50;;;;;;5070676;28;20211;-60
2021/06/24 12:42:48;;;;;;;1.60;1.20;;;29.80;70.90;;;;;;5070702;28;20224;-59
2021/06/24 12:45:19;;;;;;;2.45;1.20;;;29.60;70.20;;;;;;5070455;28;20215;-60
2021/06/24 12:47:48;;;;;;;3.70;1.27;;;29.60;70.80;;;;;;5071153;28;20203;-60
2021/06/24 12:50:24;;;;;;;1.17;1.08;;;29.70;71.30;;;;;;5070939;28;20213;-60
2021/06/24 12:52:53;;;;;;;4.05;3.50;;;29.80;70.70;;;;;;5070446;28;20228;-60
2021/06/24 12:55:38;;;;;;;2.55;1.38;;;30.20;70.80;;;;;;5070175;28;20208;-60
2021/06/24 12:58:06;;;;;;;2.63;1.02;;;30.60;69.50;;;;;;5070161;28;20216;-61
2021/06/24 13:00:35;;;;;;;1.85;1.20;;;30.80;69.10;;;;;;5070532;28;20205;-60
2021/06/24 13:03:02;;;;;;;2.13;0.90;;;30.90;68.60;;;;;;5070295;28;20251;-60
2021/06/24 13:05:31;;;;;;;1.73;0.90;;;30.90;68.00;;;;;;5070299;28;20291;-61